Terminal Aerodrome Forecast
Issued by NWS Glasgow, MT

Home | Current Version | Previous Version | Text Only | Print | Product List | Glossary On
Versions: 1 2 3 4 5 6 7 8 9 10 11 12 13 14 15 16 17 18 19 20 21 22 23 24
000
FTUS45 KGGW 221720
TAFGGW
TAF
KGGW 221720Z 2218/2318 15009KT P6SM SKC
     FM230900 15007KT P6SM FEW110 WS020/24030KT
     FM231000 15007KT P6SM FEW110=

USA.gov is the U.S. government's official web portal to all federal, state and local government web resources and services.